Nome, AK

1:11 AM AKDT on July 11, 2014 (GMT -0800)
BA Airport (KAKNOME7) Elev 37 ft | 64.51 °N, 165.45 °W | Change Station

Current weather conditions updated 6 seconds ago

Light Rain
Light Rain
59.1 °F
Feels Like 59.1 °F
N
7.0
Wind Variable Wind from North
Gusts 13.0 mph

Today is forecast to be Cooler than yesterday. A few showers developing late tonight.

Today
High -- | Low -- °F
--% Chance of Precip.
Yesterday
High -- | Low -- °F
Precip. -- in
4:57 AM 1:14 AM
Waxing Gibbous, 98% visible
Pressure 29.66 in
Visibility 10.0 miles
Clouds Overcast 8000 ft
Dew Point 56 °F
Humidity 88%
Rainfall 0.00 in
Snow Depth Not available.
UV 0 out of 12
Pollen Not available.
Air Quality Not available.
Flu Activity Sporadic
METAR PAOM 110853Z 02008KT 10SM -RA OVC080 16/13 A2966 RMK AO2 SLP043 P0000 60001 T01560128 402110083 55011

More Conditions Fewer Conditions

Pressure 29.66 in
Visibility 10.0 miles
Clouds Overcast 8000 ft
Dew Point 56 °F
Humidity 88%
Rainfall 0.00 in
Snow Depth Not available.
UV 0 out of 12
Pollen Not available.
Air Quality Not available.
Flu Activity Sporadic
METAR PAOM 110853Z 02008KT 10SM -RA OVC080 16/13 A2966 RMK AO2 SLP043 P0000 60001 T01560128 402110083 55011

More Conditions Fewer Conditions

10-Day Weather Forecast

Almanac

Astronomy

Jul. 11, 2014 Rise Set
Actual Time 4:57 AM AKDT 1:14 AM AKDT
Civil Twilight Sun does not rise Sun does not rise
Nautical Twilight Sun does not rise Sun does not rise
Astronomical Twilight Sun does not rise Sun does not rise
Moon 11:40 PM AKDT 5:08 AM AKDT
Length of Visible Light 24h 00m
Length of Day
20h 17m
Tomorrow will be 5m 49s shorter.
Waxing Gibbous, 98% of the Moon is Illuminated
Today
Waxing Gibbous
Jul 12
Full
Jul 18
Last Quarter
Jul 26
New
Aug 3
First Quarter

Today's Extremes

State Highs State Lows

Community

WunderPhotos

Upload Photos

1,732,402 photos uploaded!

WunderBlogs® & News

Nearby

Snow Depth

Station Depth Elevation
Rocky Point 3 in 500 ft
Gobblers Knob 0 in 2030 ft
Susitna Valley High 1 in 375 ft
Atigun Pass 0 in 4800 ft
Point Mackenzie 1 in 200 ft

Earthquake Activity

City Distance Mag. Time & Date
No recent earthquake activity has been reported nearby.
Minimum magnitude displayed is 2.5.

Coastal Water Temperatures

Place Temperature
No Stations Reporting

Nearby Weather Stations

Station Location Temp. Dew Point Humidity Wind Precip. Elev Updated Type
BA Airport, Nome, AK 59.1 °F 56 °F 88% North  at  7.0 mph 0.00 in / hr 37 ft 1:11 AM AKDT Normal
Dexter, Nome, AK 56.9 °F 55 °F 92% East  at  0.0 mph 0.00 in / hr 45 ft 1:09 AM AKDT Normal
Banner Creek, Nome, AK 57.4 °F 55 °F 91% NW  at  0.0 mph 0.00 in / hr 75 ft 1:10 AM AKDT Normal

Show More Stations Show Fewer Stations